Time;durP1;ratioP1;P1;durP2;ratioP2;P2;SDS_P1;SDS_P2;PMS_P1;PMS_P2;Temp;Humidity;BMP_temperature;BMP_pressure;BME280_temperature;BME280_humidity;BME280_pressure;Samples;Min_cycle;Max_cycle;Signal;HPM_P1;HPM_P2
2023/06/29 00:00:19;;;;;;;43.55;29.35;;;19.30;99.90;;;;;;5074904;28;20089;-68
2023/06/29 00:02:45;;;;;;;45.58;30.13;;;19.00;99.90;;;;;;5075011;28;20039;-68
2023/06/29 00:05:11;;;;;;;38.05;26.00;;;19.30;99.90;;;;;;5075003;28;20456;-67
2023/06/29 00:07:36;;;;;;;45.53;29.55;;;20.00;99.90;;;;;;5074737;28;20032;-67
2023/06/29 00:10:03;;;;;;;39.75;27.45;;;19.50;99.90;;;;;;5074643;28;20123;-67
2023/06/29 00:12:29;;;;;;;37.83;26.75;;;18.90;99.90;;;;;;5075116;28;20117;-68
2023/06/29 00:14:55;;;;;;;42.15;27.52;;;19.40;99.90;;;;;;5093016;28;20519;-67
2023/06/29 00:17:21;;;;;;;46.28;30.70;;;19.50;99.90;;;;;;5074808;28;20075;-67
2023/06/29 00:19:47;;;;;;;44.72;31.55;;;19.20;99.90;;;;;;5074146;28;20314;-67
2023/06/29 00:22:18;;;;;;;43.38;29.98;;;19.60;99.90;;;;;;5074559;28;20068;-68
2023/06/29 00:24:44;;;;;;;41.67;30.23;;;19.70;99.90;;;;;;5075320;28;20552;-68
2023/06/29 00:27:15;;;;;;;44.67;30.08;;;19.50;99.90;;;;;;5093500;28;20036;-67
2023/06/29 00:29:42;;;;;;;40.53;27.65;;;19.20;99.90;;;;;;5074450;28;20086;-68
2023/06/29 00:32:11;;;;;;;46.35;31.77;;;19.60;99.90;;;;;;5074878;28;20048;-67
2023/06/29 00:34:37;;;;;;;49.35;32.95;;;19.70;99.90;;;;;;5092688;28;20040;-67
2023/06/29 00:37:03;;;;;;;51.15;32.22;;;19.70;99.90;;;;;;5092530;28;20118;-67
2023/06/29 00:39:28;;;;;;;47.42;33.03;;;19.60;99.90;;;;;;5091542;28;20044;-68
2023/06/29 00:41:55;;;;;;;49.60;31.35;;;19.20;99.90;;;;;;5092623;28;20117;-67
2023/06/29 00:44:23;;;;;;;50.00;33.75;;;19.30;99.90;;;;;;5074412;28;20039;-68
2023/06/29 00:46:51;;;;;;;47.63;31.73;;;19.00;99.90;;;;;;5092516;28;20480;-67
2023/06/29 00:49:21;;;;;;;51.00;33.47;;;19.10;99.90;;;;;;5091890;28;20098;-67
2023/06/29 00:51:52;;;;;;;44.63;32.05;;;19.90;99.90;;;;;;5073986;28;20044;-67
2023/06/29 00:54:18;;;;;;;49.70;33.70;;;19.70;99.90;;;;;;5074205;28;20047;-67
2023/06/29 00:56:45;;;;;;;50.20;34.13;;;19.70;99.90;;;;;;5074070;28;20039;-67
2023/06/29 00:59:11;;;;;;;45.55;30.95;;;19.20;99.90;;;;;;5073536;28;20141;-67
2023/06/29 01:01:41;;;;;;;54.47;34.35;;;19.40;99.90;;;;;;5074139;28;20043;-68
2023/06/29 01:04:08;;;;;;;45.20;31.85;;;19.60;99.90;;;;;;5073915;28;20048;-67
2023/06/29 01:06:54;;;;;;;53.15;34.58;;;19.40;99.90;;;;;;5074212;28;20040;-68
2023/06/29 01:09:20;;;;;;;43.55;30.83;;;19.40;99.90;;;;;;5073627;28;20035;-67
2023/06/29 01:11:46;;;;;;;55.63;36.63;;;19.10;99.90;;;;;;5092045;28;20534;-68
2023/06/29 01:14:15;;;;;;;46.65;29.83;;;19.00;99.90;;;;;;5091948;28;20036;-67
2023/06/29 01:16:42;;;;;;;49.88;32.45;;;19.40;99.90;;;;;;5074069;28;20059;-68
2023/06/29 01:19:11;;;;;;;53.17;32.92;;;19.10;99.90;;;;;;5073296;28;20043;-68
2023/06/29 01:21:44;;;;;;;48.70;33.63;;;19.00;99.90;;;;;;5091933;28;20039;-67
2023/06/29 01:24:13;;;;;;;47.95;32.50;;;19.00;99.90;;;;;;5073764;28;20082;-68
2023/06/29 01:26:40;;;;;;;53.08;31.90;;;19.60;99.90;;;;;;5074059;28;20051;-67
2023/06/29 01:29:05;;;;;;;45.97;31.58;;;19.50;99.90;;;;;;5073248;28;20040;-67
2023/06/29 01:31:31;;;;;;;56.10;35.15;;;19.20;99.90;;;;;;5091872;28;20032;-68
2023/06/29 01:33:56;;;;;;;46.80;30.83;;;19.90;99.90;;;;;;5073676;28;20043;-67
2023/06/29 01:36:37;;;;;;;47.92;31.85;;;19.60;99.90;;;;;;5073742;28;20067;-68
2023/06/29 01:39:07;;;;;;;48.45;32.63;;;19.10;99.90;;;;;;5073095;28;20043;-67
2023/06/29 01:41:39;;;;;;;44.78;32.03;;;19.30;99.90;;;;;;5073756;28;20044;-67
2023/06/29 01:44:06;;;;;;;46.75;30.27;;;19.20;99.90;;;;;;5073610;28;20134;-67
2023/06/29 01:46:34;;;;;;;43.90;29.67;;;19.20;99.90;;;;;;5091728;28;20068;-67
2023/06/29 01:49:00;;;;;;;44.53;31.15;;;19.40;99.90;;;;;;5091405;28;20339;-67
2023/06/29 01:51:25;;;;;;;42.35;29.60;;;19.30;99.90;;;;;;5077440;28;20122;-67
2023/06/29 01:53:51;;;;;;;52.08;33.60;;;19.10;99.90;;;;;;5077598;28;20472;-67
2023/06/29 01:56:16;;;;;;;46.15;32.33;;;18.90;99.90;;;;;;5095659;28;20032;-68
2023/06/29 01:58:42;;;;;;;53.08;34.70;;;19.50;99.90;;;;;;5095427;28;20092;-67
2023/06/29 02:01:08;;;;;;;48.72;33.22;;;19.60;99.90;;;;;;5095570;28;20411;-67
2023/06/29 02:03:33;;;;;;;50.88;33.67;;;19.50;99.90;;;;;;5077447;28;20051;-67
2023/06/29 02:05:59;;;;;;;54.28;34.60;;;19.30;99.90;;;;;;5077373;28;20051;-67
2023/06/29 02:08:24;;;;;;;41.47;28.67;;;19.90;99.90;;;;;;5095065;28;20035;-67
2023/06/29 02:10:50;;;;;;;50.30;33.35;;;19.50;99.90;;;;;;5076894;28;20047;-67
2023/06/29 02:13:16;;;;;;;44.97;32.38;;;18.90;99.90;;;;;;5077365;28;20067;-67
2023/06/29 02:15:41;;;;;;;48.13;32.33;;;19.40;99.90;;;;;;5095560;28;20115;-67
2023/06/29 02:18:07;;;;;;;43.50;31.17;;;19.20;99.90;;;;;;5095334;28;20040;-67
2023/06/29 02:20:32;;;;;;;49.47;32.50;;;19.50;99.90;;;;;;5078596;28;20040;-68
2023/06/29 02:22:58;;;;;;;51.70;34.72;;;19.40;99.90;;;;;;5061936;28;20115;-68
2023/06/29 02:25:23;;;;;;;45.83;30.50;;;19.90;99.90;;;;;;5096171;28;20042;-67
2023/06/29 02:27:49;;;;;;;56.00;33.63;;;18.90;99.90;;;;;;5076558;28;20040;-67
2023/06/29 02:30:15;;;;;;;43.80;30.83;;;19.20;99.90;;;;;;5095019;28;20050;-68
2023/06/29 02:32:40;;;;;;;45.50;31.00;;;19.20;99.90;;;;;;5094913;28;20058;-67
2023/06/29 02:35:06;;;;;;;40.75;29.73;;;19.00;99.90;;;;;;5094896;28;20114;-67
2023/06/29 02:37:32;;;;;;;44.75;30.80;;;18.80;99.90;;;;;;5094462;28;20093;-67
2023/06/29 02:39:57;;;;;;;49.33;31.45;;;19.40;99.90;;;;;;5076514;28;20580;-68
2023/06/29 02:42:23;;;;;;;49.30;33.28;;;19.60;99.90;;;;;;5094998;28;20036;-67
2023/06/29 02:44:48;;;;;;;45.78;29.92;;;19.70;99.90;;;;;;5095040;28;20043;-68
2023/06/29 02:47:14;;;;;;;41.85;29.23;;;19.20;99.90;;;;;;5094882;28;20492;-68
2023/06/29 02:49:39;;;;;;;42.47;28.05;;;19.40;99.90;;;;;;5075987;28;20079;-68
2023/06/29 02:52:05;;;;;;;48.60;32.25;;;19.50;99.90;;;;;;5094664;28;20415;-68
2023/06/29 02:54:31;;;;;;;48.80;30.33;;;19.10;99.90;;;;;;5094427;28;20040;-67
2023/06/29 02:56:56;;;;;;;45.78;29.02;;;19.10;99.90;;;;;;5076358;28;20040;-68
2023/06/29 02:59:22;;;;;;;42.78;29.65;;;19.50;99.90;;;;;;5075897;28;20040;-67
2023/06/29 03:01:48;;;;;;;45.10;29.42;;;19.40;99.90;;;;;;5075861;28;20032;-67
2023/06/29 03:04:13;;;;;;;45.63;29.55;;;19.60;99.90;;;;;;5094275;28;20047;-67
2023/06/29 03:06:39;;;;;;;49.38;29.27;;;19.00;99.90;;;;;;5076263;28;20040;-67
2023/06/29 03:09:04;;;;;;;45.55;28.58;;;19.10;99.90;;;;;;5075687;28;20462;-67
2023/06/29 03:11:30;;;;;;;44.13;28.05;;;19.40;99.90;;;;;;5076134;28;20040;-67
2023/06/29 03:13:57;;;;;;;42.72;27.83;;;19.30;99.90;;;;;;5094374;28;20039;-68
2023/06/29 03:16:22;;;;;;;42.97;28.52;;;20.00;99.90;;;;;;5076300;28;20040;-67
2023/06/29 03:18:48;;;;;;;39.08;26.35;;;19.20;99.90;;;;;;5093952;28;20399;-67
2023/06/29 03:21:16;;;;;;;40.20;26.65;;;19.70;99.90;;;;;;5075592;28;20066;-67
2023/06/29 03:23:42;;;;;;;36.58;25.85;;;19.10;99.90;;;;;;5076307;28;20040;-67
2023/06/29 03:26:07;;;;;;;43.88;27.88;;;19.30;99.90;;;;;;5076071;28;20044;-67
2023/06/29 03:28:33;;;;;;;40.20;26.80;;;19.70;99.90;;;;;;5075269;28;20506;-66
2023/06/29 03:30:59;;;;;;;57.25;30.70;;;19.50;99.90;;;;;;5058953;28;20146;-68
2023/06/29 03:33:24;;;;;;;39.22;26.98;;;19.70;99.90;;;;;;5075659;28;20036;-67
2023/06/29 03:35:50;;;;;;;37.42;26.83;;;19.60;99.90;;;;;;5075704;28;20077;-67
2023/06/29 03:38:17;;;;;;;38.30;24.75;;;18.90;99.90;;;;;;5075549;28;20092;-68
2023/06/29 03:40:43;;;;;;;41.10;27.67;;;19.30;99.90;;;;;;5058475;28;20032;-67
2023/06/29 03:43:08;;;;;;;40.60;26.65;;;19.20;99.90;;;;;;5075837;28;20040;-67
2023/06/29 03:45:34;;;;;;;40.67;26.08;;;19.70;99.90;;;;;;5093659;28;20032;-67
2023/06/29 03:48:00;;;;;;;41.10;24.85;;;19.00;99.90;;;;;;5074943;28;20043;-67
2023/06/29 03:50:25;;;;;;;41.33;26.35;;;18.90;99.90;;;;;;5092905;28;20040;-68
2023/06/29 03:52:51;;;;;;;40.55;25.15;;;19.30;99.90;;;;;;5075223;28;20036;-67
2023/06/29 03:55:18;;;;;;;37.30;24.85;;;19.40;99.90;;;;;;5075153;28;20038;-67
2023/06/29 03:57:43;;;;;;;40.13;25.27;;;19.70;99.90;;;;;;5058139;28;20089;-67
2023/06/29 04:00:09;;;;;;;39.53;24.35;;;19.70;99.90;;;;;;5074994;28;20044;-68
2023/06/29 04:02:35;;;;;;;38.80;24.17;;;19.40;99.90;;;;;;5075269;28;20044;-68
2023/06/29 04:05:00;;;;;;;43.83;24.92;;;19.30;99.90;;;;;;5075285;28;20040;-68
2023/06/29 04:07:26;;;;;;;38.88;24.20;;;19.60;99.90;;;;;;5092829;28;20480;-66
2023/06/29 04:09:52;;;;;;;34.15;24.27;;;19.20;99.90;;;;;;5092865;28;20044;-68
2023/06/29 04:12:17;;;;;;;35.67;24.73;;;19.30;99.90;;;;;;5074571;28;20043;-67
2023/06/29 04:14:43;;;;;;;33.33;21.60;;;19.10;99.90;;;;;;5074198;28;20081;-67
2023/06/29 04:17:08;;;;;;;37.67;23.98;;;19.40;99.90;;;;;;5074862;28;20059;-67
2023/06/29 04:19:34;;;;;;;38.17;22.65;;;19.80;99.90;;;;;;5092251;28;20036;-68
2023/06/29 04:22:00;;;;;;;35.85;21.90;;;20.10;99.90;;;;;;5092610;28;20032;-68
2023/06/29 04:24:25;;;;;;;33.60;22.85;;;19.60;99.90;;;;;;5074572;28;20036;-68
2023/06/29 04:26:51;;;;;;;34.92;22.67;;;19.60;99.90;;;;;;5092904;28;20036;-67
2023/06/29 04:29:16;;;;;;;27.52;20.05;;;19.80;99.90;;;;;;5074211;28;20484;-67
2023/06/29 04:31:42;;;;;;;32.42;22.33;;;19.50;99.90;;;;;;5074496;28;20043;-67
2023/06/29 04:34:08;;;;;;;28.65;21.20;;;19.30;99.90;;;;;;5074461;28;20032;-68
2023/06/29 04:36:33;;;;;;;32.50;21.67;;;20.40;99.90;;;;;;5074589;28;20105;-67
2023/06/29 04:39:00;;;;;;;37.28;23.92;;;19.90;99.90;;;;;;5091855;28;20127;-67
2023/06/29 04:41:32;;;;;;;28.92;20.40;;;19.90;99.90;;;;;;5074168;28;20514;-67
2023/06/29 04:44:01;;;;;;;30.85;22.30;;;19.60;99.90;;;;;;5092637;28;20032;-68
2023/06/29 04:46:30;;;;;;;31.33;21.90;;;20.00;99.90;;;;;;5074286;28;20115;-68
2023/06/29 04:48:56;;;;;;;33.65;22.30;;;19.80;99.90;;;;;;5073743;28;20047;-68
2023/06/29 04:51:21;;;;;;;33.25;22.88;;;19.60;99.90;;;;;;5092057;28;20036;-67
2023/06/29 04:53:47;;;;;;;32.38;20.73;;;19.80;99.90;;;;;;5074151;28;20052;-67
2023/06/29 04:56:13;;;;;;;35.00;22.13;;;19.80;99.90;;;;;;5074054;28;20054;-68
2023/06/29 04:58:38;;;;;;;33.92;21.92;;;19.50;99.90;;;;;;5073786;28;20086;-67
2023/06/29 05:01:04;;;;;;;37.95;22.33;;;19.60;99.90;;;;;;5057370;28;20417;-68
2023/06/29 05:03:30;;;;;;;28.20;18.92;;;19.30;99.90;;;;;;5092611;28;20481;-67
2023/06/29 05:05:55;;;;;;;31.38;20.55;;;20.30;99.90;;;;;;5092142;28;20038;-68
2023/06/29 05:08:21;;;;;;;30.70;21.52;;;19.50;99.90;;;;;;5073856;28;20488;-68
2023/06/29 05:10:46;;;;;;;32.05;21.85;;;19.60;99.90;;;;;;5092572;28;20040;-68
2023/06/29 05:13:12;;;;;;;31.75;22.15;;;19.40;99.90;;;;;;5074066;28;20128;-68
2023/06/29 05:15:38;;;;;;;30.73;20.63;;;19.90;99.90;;;;;;5092194;28;20110;-68
2023/06/29 05:18:03;;;;;;;32.08;21.92;;;19.80;99.90;;;;;;5073612;28;20051;-68
2023/06/29 05:20:29;;;;;;;32.08;21.48;;;19.30;99.90;;;;;;5091555;28;20115;-67
2023/06/29 05:22:55;;;;;;;29.90;21.10;;;20.00;99.90;;;;;;5073854;28;20067;-67
2023/06/29 05:25:21;;;;;;;31.73;20.40;;;19.80;99.90;;;;;;5056972;28;20032;-67
2023/06/29 05:27:46;;;;;;;33.85;21.73;;;19.70;99.90;;;;;;5091502;28;20028;-68
2023/06/29 05:30:12;;;;;;;31.85;19.95;;;19.70;99.90;;;;;;5073459;28;20040;-68
2023/06/29 05:32:38;;;;;;;34.25;22.35;;;19.70;99.90;;;;;;5073585;28;20119;-68
2023/06/29 05:35:04;;;;;;;32.33;20.52;;;20.30;99.90;;;;;;5073699;28;20082;-68
2023/06/29 05:37:30;;;;;;;30.50;20.65;;;19.50;99.90;;;;;;5073519;28;20488;-68
2023/06/29 05:39:56;;;;;;;33.03;21.00;;;19.60;99.90;;;;;;5073713;28;20044;-68
2023/06/29 05:42:23;;;;;;;29.77;19.65;;;19.60;99.90;;;;;;5073831;28;20101;-68
2023/06/29 05:44:49;;;;;;;30.60;18.50;;;19.60;99.90;;;;;;5091718;28;20047;-68
2023/06/29 05:47:14;;;;;;;28.40;18.77;;;19.80;99.90;;;;;;5073542;28;20036;-68
2023/06/29 05:49:40;;;;;;;31.75;21.30;;;19.70;99.90;;;;;;5072822;28;20115;-68
2023/06/29 05:52:06;;;;;;;28.98;20.48;;;20.10;99.90;;;;;;5073749;28;20115;-68
2023/06/29 05:54:32;;;;;;;26.35;19.92;;;20.00;99.90;;;;;;5073529;28;20058;-69
2023/06/29 05:56:57;;;;;;;31.23;19.60;;;20.10;99.90;;;;;;5073461;28;20036;-68
2023/06/29 05:59:23;;;;;;;34.65;20.77;;;20.40;99.90;;;;;;5091042;28;20296;-68
2023/06/29 06:01:49;;;;;;;27.00;19.73;;;20.60;99.90;;;;;;5091460;28;20032;-68
2023/06/29 06:04:14;;;;;;;31.17;20.13;;;20.30;99.90;;;;;;5091358;28;20032;-68
2023/06/29 06:06:40;;;;;;;28.42;19.60;;;20.10;99.90;;;;;;5073363;28;20036;-68
2023/06/29 06:09:06;;;;;;;33.08;20.25;;;20.10;99.90;;;;;;5073149;28;20400;-68
2023/06/29 06:11:32;;;;;;;29.17;20.55;;;20.20;99.90;;;;;;5091221;28;20434;-68
2023/06/29 06:13:58;;;;;;;31.45;20.25;;;20.50;99.90;;;;;;5091416;28;20047;-68
2023/06/29 06:16:23;;;;;;;28.42;19.50;;;20.50;99.90;;;;;;5073469;28;20407;-68
2023/06/29 06:18:49;;;;;;;29.80;19.77;;;20.20;99.90;;;;;;5072661;28;20123;-68
2023/06/29 06:21:15;;;;;;;32.20;19.73;;;20.40;99.90;;;;;;5090933;28;20044;-69
2023/06/29 06:23:41;;;;;;;31.00;20.52;;;20.30;99.90;;;;;;5091284;28;20438;-69
2023/06/29 06:26:06;;;;;;;30.50;19.65;;;20.20;99.90;;;;;;5073204;28;20054;-69
2023/06/29 06:28:32;;;;;;;33.22;20.88;;;20.10;99.90;;;;;;5073218;28;20491;-68
2023/06/29 06:30:58;;;;;;;36.25;21.30;;;20.00;99.90;;;;;;5073497;28;20063;-67
2023/06/29 06:33:23;;;;;;;30.23;20.65;;;20.60;99.90;;;;;;5091092;28;20071;-68
2023/06/29 06:35:49;;;;;;;36.17;22.65;;;20.10;99.90;;;;;;5073095;28;20032;-67
2023/06/29 06:38:14;;;;;;;33.08;21.33;;;20.50;99.90;;;;;;5094669;28;20510;-67
2023/06/29 06:40:40;;;;;;;29.02;20.60;;;20.20;99.90;;;;;;5094638;28;20036;-67
2023/06/29 06:43:06;;;;;;;30.02;20.45;;;20.20;99.90;;;;;;5076842;28;20043;-67
2023/06/29 06:45:31;;;;;;;31.17;20.48;;;20.50;99.90;;;;;;5077460;28;20110;-67
2023/06/29 06:47:57;;;;;;;33.15;20.92;;;20.50;99.90;;;;;;5077430;28;20040;-67
2023/06/29 06:50:23;;;;;;;33.67;20.65;;;20.90;99.90;;;;;;5076696;28;20511;-67
2023/06/29 06:52:48;;;;;;;38.17;20.85;;;20.70;99.90;;;;;;5076681;28;20079;-67
2023/06/29 06:55:14;;;;;;;31.30;20.73;;;20.50;99.90;;;;;;5076669;28;20055;-68
2023/06/29 06:57:39;;;;;;;33.85;19.95;;;20.40;99.90;;;;;;5076086;28;20089;-68
2023/06/29 07:00:10;;;;;;;30.55;19.42;;;20.90;99.90;;;;;;5059496;28;20473;-68
2023/06/29 07:02:36;;;;;;;32.47;21.15;;;20.90;99.90;;;;;;5094517;28;20083;-68
2023/06/29 07:05:01;;;;;;;34.55;20.95;;;21.30;99.90;;;;;;5094665;28;20076;-69
2023/06/29 07:07:27;;;;;;;34.92;21.88;;;21.30;99.90;;;;;;5075877;28;20040;-67
2023/06/29 07:09:52;;;;;;;33.95;21.92;;;21.10;99.90;;;;;;5094224;28;20055;-68
2023/06/29 07:12:18;;;;;;;35.55;22.02;;;21.10;99.90;;;;;;5076133;28;20123;-67
2023/06/29 07:14:45;;;;;;;33.53;20.42;;;21.30;99.90;;;;;;5076039;28;20076;-68
2023/06/29 07:17:11;;;;;;;31.67;21.40;;;20.80;99.90;;;;;;5059423;28;20332;-69
2023/06/29 07:19:37;;;;;;;36.92;22.00;;;21.30;99.90;;;;;;5093644;28;20537;-68
2023/06/29 07:22:02;;;;;;;36.97;22.25;;;20.90;99.90;;;;;;5076108;28;20040;-69
2023/06/29 07:24:28;;;;;;;36.67;22.88;;;20.90;99.90;;;;;;5076185;28;20519;-69
2023/06/29 07:26:54;;;;;;;37.53;23.17;;;21.00;99.90;;;;;;5076549;28;20047;-69
2023/06/29 07:29:19;;;;;;;31.65;22.10;;;21.40;99.90;;;;;;5093622;28;20036;-68
2023/06/29 07:31:46;;;;;;;36.17;23.15;;;21.40;99.90;;;;;;5093848;28;20040;-68
2023/06/29 07:34:11;;;;;;;36.75;22.83;;;21.60;99.90;;;;;;5075799;28;20086;-69
2023/06/29 07:36:39;;;;;;;33.50;21.73;;;21.30;99.90;;;;;;5075664;28;20113;-69
2023/06/29 07:39:04;;;;;;;37.27;22.63;;;21.70;99.90;;;;;;5075123;28;20522;-69
2023/06/29 07:41:31;;;;;;;33.40;21.55;;;21.70;99.90;;;;;;5093683;28;20269;-69
2023/06/29 07:43:57;;;;;;;32.63;22.35;;;21.70;99.90;;;;;;5093578;28;20040;-68
2023/06/29 07:46:24;;;;;;;44.47;24.95;;;21.60;99.90;;;;;;5093659;28;20086;-68
2023/06/29 07:48:52;;;;;;;34.70;23.77;;;21.70;99.90;;;;;;5093103;28;20043;-68
2023/06/29 07:51:17;;;;;;;32.90;23.02;;;22.00;99.90;;;;;;5075283;28;20131;-69
2023/06/29 07:53:43;;;;;;;38.72;23.58;;;22.10;99.90;;;;;;5075261;28;20123;-68
2023/06/29 07:56:09;;;;;;;43.83;25.38;;;22.20;99.90;;;;;;5093445;28;20405;-68
2023/06/29 07:58:35;;;;;;;36.47;24.10;;;21.90;99.90;;;;;;5092755;28;20048;-67
2023/06/29 08:01:02;;;;;;;36.17;24.83;;;22.10;99.90;;;;;;5092980;28;20040;-68
2023/06/29 08:03:28;;;;;;;39.15;26.40;;;21.70;99.90;;;;;;5075098;28;20082;-67
2023/06/29 08:05:53;;;;;;;40.88;25.40;;;21.70;99.90;;;;;;5075085;28;20487;-68
2023/06/29 08:08:20;;;;;;;39.38;25.50;;;21.90;99.90;;;;;;5074586;28;20043;-69
2023/06/29 08:10:49;;;;;;;42.72;27.40;;;22.00;99.90;;;;;;5092865;28;20048;-69
2023/06/29 08:13:16;;;;;;;39.38;25.27;;;21.80;99.90;;;;;;5074827;28;20047;-69
2023/06/29 08:15:42;;;;;;;44.28;26.92;;;21.90;99.90;;;;;;5058465;28;20472;-69
2023/06/29 08:18:07;;;;;;;36.28;24.90;;;22.00;99.90;;;;;;5074470;28;20119;-69
2023/06/29 08:20:33;;;;;;;41.78;26.52;;;21.90;99.90;;;;;;5074494;28;20122;-69
2023/06/29 08:22:58;;;;;;;37.75;26.52;;;21.80;99.90;;;;;;5074752;28;20039;-69
2023/06/29 08:25:25;;;;;;;38.00;26.50;;;21.90;99.90;;;;;;5074784;28;20082;-69
2023/06/29 08:27:51;;;;;;;36.67;25.33;;;21.90;99.90;;;;;;5057539;28;20072;-69
2023/06/29 08:30:16;;;;;;;38.25;27.58;;;21.70;99.90;;;;;;5074353;28;20039;-69
2023/06/29 08:32:43;;;;;;;40.60;26.42;;;21.50;99.90;;;;;;5074603;28;20044;-69
2023/06/29 08:35:09;;;;;;;42.65;27.58;;;21.40;99.90;;;;;;5092956;28;20411;-69
2023/06/29 08:37:35;;;;;;;42.70;27.90;;;21.60;99.90;;;;;;5074376;28;20050;-69
2023/06/29 08:40:00;;;;;;;40.63;25.73;;;21.40;99.90;;;;;;5074203;28;20040;-69
2023/06/29 08:42:27;;;;;;;40.97;26.80;;;21.40;99.90;;;;;;5092401;28;20034;-69
2023/06/29 08:44:53;;;;;;;37.65;25.00;;;21.40;99.90;;;;;;5092488;28;20036;-69
2023/06/29 08:47:20;;;;;;;33.47;24.60;;;21.50;99.90;;;;;;5074409;28;20515;-69
2023/06/29 08:49:46;;;;;;;39.63;26.98;;;21.40;99.90;;;;;;5073624;28;20044;-68
2023/06/29 08:52:17;;;;;;;40.58;26.88;;;21.50;99.90;;;;;;5073885;28;20072;-69
2023/06/29 08:54:43;;;;;;;40.15;24.48;;;21.60;99.90;;;;;;5092345;28;20072;-69
2023/06/29 08:57:09;;;;;;;36.55;25.15;;;21.40;99.90;;;;;;5074132;28;20453;-69
2023/06/29 08:59:37;;;;;;;37.15;26.38;;;21.50;99.90;;;;;;5072757;28;20564;-69
2023/06/29 09:02:06;;;;;;;34.03;23.98;;;21.40;99.90;;;;;;5092159;28;20032;-69
2023/06/29 09:04:32;;;;;;;36.70;24.30;;;21.40;99.90;;;;;;5092113;28;20107;-69
2023/06/29 09:06:58;;;;;;;40.28;25.35;;;21.60;99.90;;;;;;5074324;28;20511;-69
2023/06/29 09:09:24;;;;;;;34.53;23.52;;;21.50;99.90;;;;;;5073317;28;20059;-69
2023/06/29 09:11:50;;;;;;;37.95;26.10;;;21.70;99.90;;;;;;5073664;28;20044;-69
2023/06/29 09:14:15;;;;;;;44.72;26.73;;;21.50;99.90;;;;;;5057206;28;20058;-69
2023/06/29 09:17:01;;;;;;;34.45;23.83;;;21.30;99.90;;;;;;5092093;28;20038;-69
2023/06/29 09:19:29;;;;;;;35.63;24.73;;;21.20;99.90;;;;;;5073172;28;20125;-69
2023/06/29 09:21:55;;;;;;;33.42;25.60;;;21.50;99.90;;;;;;5074280;28;20393;-68
2023/06/29 09:24:21;;;;;;;37.08;25.27;;;21.50;99.90;;;;;;5073703;28;20051;-69
2023/06/29 09:26:53;;;;;;;32.75;25.25;;;21.40;99.90;;;;;;5073592;28;20036;-69
2023/06/29 09:29:19;;;;;;;34.40;24.48;;;21.70;99.90;;;;;;5073342;28;20047;-69
2023/06/29 09:31:58;;;;;;;36.53;25.38;;;21.40;99.90;;;;;;5073697;28;20500;-69
2023/06/29 09:34:26;;;;;;;36.35;27.48;;;21.10;99.90;;;;;;5073631;28;20032;-69
2023/06/29 09:36:52;;;;;;;41.03;27.77;;;21.20;99.90;;;;;;5073634;28;20062;-69
2023/06/29 09:39:18;;;;;;;39.88;26.70;;;21.10;99.90;;;;;;5072860;28;20499;-68
2023/06/29 09:41:56;;;;;;;44.45;28.15;;;21.20;99.90;;;;;;5073841;28;20509;-69
2023/06/29 09:44:24;;;;;;;39.22;26.73;;;21.00;99.90;;;;;;5073700;28;20040;-69
2023/06/29 09:47:02;;;;;;;34.90;26.27;;;20.90;99.90;;;;;;5073608;28;20499;-69
2023/06/29 09:49:29;;;;;;;44.35;28.27;;;21.30;99.90;;;;;;5073113;28;20040;-69
2023/06/29 09:52:04;;;;;;;51.25;28.92;;;21.20;99.90;;;;;;5073699;28;20377;-69
2023/06/29 09:54:37;;;;;;;38.67;28.63;;;21.40;99.90;;;;;;5073605;28;20090;-69
2023/06/29 09:57:03;;;;;;;42.85;29.17;;;21.30;99.90;;;;;;5091609;28;20038;-69
2023/06/29 09:59:34;;;;;;;39.83;28.13;;;21.10;99.90;;;;;;5072654;28;20051;-69
2023/06/29 10:02:00;;;;;;;43.20;29.52;;;21.20;99.90;;;;;;5073285;28;20051;-69
2023/06/29 10:04:25;;;;;;;43.50;30.38;;;21.10;99.90;;;;;;5073407;28;20044;-69
2023/06/29 10:07:18;;;;;;;39.40;26.48;;;21.20;99.90;;;;;;5091586;28;20515;-69
2023/06/29 10:09:47;;;;;;;49.37;28.57;;;21.40;99.90;;;;;;5090757;28;20040;-69
2023/06/29 10:12:14;;;;;;;38.15;28.83;;;21.50;99.90;;;;;;5075323;28;20392;-69
2023/06/29 10:14:43;;;;;;;43.53;30.80;;;21.60;99.90;;;;;;5077054;28;20043;-69
2023/06/29 10:17:16;;;;;;;40.22;28.15;;;21.50;99.90;;;;;;5095312;28;20081;-69
2023/06/29 10:19:43;;;;;;;40.00;26.50;;;21.50;99.90;;;;;;5076430;28;20555;-69
2023/06/29 10:22:12;;;;;;;40.95;28.83;;;21.70;99.90;;;;;;5077056;28;20377;-69
2023/06/29 10:24:47;;;;;;;44.75;28.73;;;21.60;99.90;;;;;;5076814;28;20047;-68
2023/06/29 10:27:14;;;;;;;40.35;28.65;;;21.90;99.90;;;;;;5060306;28;20508;-69
2023/06/29 10:29:48;;;;;;;40.78;28.13;;;21.60;99.90;;;;;;5076290;28;20114;-69
2023/06/29 10:32:37;;;;;;;41.80;29.15;;;21.70;99.90;;;;;;5094909;28;20122;-69
2023/06/29 10:35:02;;;;;;;38.10;27.98;;;21.90;99.90;;;;;;5076988;28;20398;-69
2023/06/29 10:37:32;;;;;;;42.65;29.55;;;21.80;99.90;;;;;;5094988;28;20112;-67
2023/06/29 10:39:58;;;;;;;40.05;27.52;;;21.70;99.90;;;;;;5076400;28;20044;-69
2023/06/29 10:42:23;;;;;;;43.50;30.17;;;21.90;99.90;;;;;;5059874;28;20093;-69
2023/06/29 10:44:49;;;;;;;41.83;28.83;;;22.00;99.90;;;;;;5095160;28;20032;-69
2023/06/29 10:47:28;;;;;;;46.53;29.92;;;21.90;99.90;;;;;;5060447;28;20075;-69
2023/06/29 10:50:13;;;;;;;40.63;28.40;;;22.00;99.90;;;;;;5076745;28;20472;-69
2023/06/29 10:52:42;;;;;;;41.45;27.73;;;22.00;99.90;;;;;;5076454;28;20046;-69
2023/06/29 10:55:14;;;;;;;47.80;29.45;;;21.80;99.90;;;;;;5094555;28;20036;-69
2023/06/29 10:57:41;;;;;;;47.60;30.60;;;21.60;99.90;;;;;;5094193;28;20396;-69
2023/06/29 11:00:07;;;;;;;45.70;29.17;;;21.80;99.90;;;;;;5076170;28;20105;-69
2023/06/29 11:02:34;;;;;;;44.08;29.58;;;21.70;99.90;;;;;;5076202;28;20032;-69
2023/06/29 11:05:00;;;;;;;42.60;29.40;;;22.10;99.90;;;;;;5094496;28;20042;-69
2023/06/29 11:07:27;;;;;;;41.65;27.63;;;22.30;99.90;;;;;;5094504;28;20115;-69
2023/06/29 11:10:02;;;;;;;40.58;29.33;;;22.70;99.90;;;;;;5075433;28;20044;-69
2023/06/29 11:12:28;;;;;;;40.10;29.63;;;22.80;99.90;;;;;;5076021;28;20084;-69
2023/06/29 11:14:57;;;;;;;46.78;31.08;;;22.90;99.90;;;;;;5094330;28;20520;-69
2023/06/29 11:17:23;;;;;;;42.65;30.10;;;23.30;99.90;;;;;;5094388;28;20087;-69
2023/06/29 11:19:49;;;;;;;42.85;29.38;;;23.00;99.90;;;;;;5075483;28;20040;-69
2023/06/29 11:22:18;;;;;;;43.38;29.30;;;23.00;99.90;;;;;;5093467;28;20040;-69
2023/06/29 11:24:44;;;;;;;44.80;31.20;;;23.10;99.90;;;;;;5075724;28;20036;-69
2023/06/29 11:27:11;;;;;;;44.10;31.05;;;23.10;99.90;;;;;;5059099;28;20032;-69
2023/06/29 11:29:38;;;;;;;40.67;28.55;;;23.00;99.90;;;;;;5075295;28;20075;-69
2023/06/29 11:32:12;;;;;;;39.03;27.35;;;23.40;99.90;;;;;;5076173;28;20118;-68
2023/06/29 11:34:38;;;;;;;40.83;30.05;;;23.70;99.90;;;;;;5059094;28;20075;-68
2023/06/29 11:37:04;;;;;;;42.70;28.95;;;24.20;99.90;;;;;;5075961;28;20036;-68
2023/06/29 11:39:30;;;;;;;40.65;28.92;;;24.00;99.90;;;;;;5074768;28;20036;-68
2023/06/29 11:41:56;;;;;;;44.42;31.33;;;24.10;99.90;;;;;;5093983;28;20309;-69
2023/06/29 11:44:25;;;;;;;38.90;27.67;;;24.10;99.90;;;;;;5094206;28;20032;-68
2023/06/29 11:46:57;;;;;;;37.40;26.45;;;24.00;99.90;;;;;;5093956;28;20119;-68
2023/06/29 11:49:23;;;;;;;35.85;25.95;;;24.10;99.90;;;;;;5075168;28;20518;-68
2023/06/29 11:51:49;;;;;;;36.30;27.42;;;24.30;99.90;;;;;;5093486;28;20044;-68
2023/06/29 11:54:15;;;;;;;37.95;26.15;;;24.40;99.90;;;;;;5075325;28;20123;-68
2023/06/29 11:56:42;;;;;;;45.63;29.02;;;24.20;99.90;;;;;;5093684;28;20131;-68
2023/06/29 11:59:18;;;;;;;34.40;25.30;;;24.50;99.90;;;;;;5074870;28;20039;-68
2023/06/29 12:01:44;;;;;;;39.17;28.08;;;24.40;99.90;;;;;;5093488;28;20032;-68
2023/06/29 12:04:12;;;;;;;41.17;27.48;;;24.40;99.90;;;;;;5075358;28;20483;-68
2023/06/29 12:06:50;;;;;;;40.90;28.52;;;24.40;99.90;;;;;;5093442;28;20040;-68
2023/06/29 12:09:16;;;;;;;42.15;28.08;;;24.10;99.90;;;;;;5074921;28;20055;-68
2023/06/29 12:11:41;;;;;;;38.90;27.00;;;24.30;99.90;;;;;;5075567;28;20036;-68
2023/06/29 12:14:11;;;;;;;38.83;27.48;;;24.80;99.90;;;;;;5093670;28;20419;-68
2023/06/29 12:16:43;;;;;;;42.90;27.92;;;25.20;99.90;;;;;;5075371;28;20047;-68
2023/06/29 12:19:12;;;;;;;41.10;28.63;;;25.40;99.90;;;;;;5092804;28;20568;-68
2023/06/29 12:21:38;;;;;;;43.55;29.13;;;25.00;99.90;;;;;;5074925;28;20321;-68
2023/06/29 12:24:04;;;;;;;47.20;31.45;;;24.60;99.90;;;;;;5075221;28;20040;-68
2023/06/29 12:26:31;;;;;;;41.42;25.98;;;24.80;99.90;;;;;;5093544;28;20036;-67